Weather at Grand Valley (Black Field)

Public forecast

Using degrees Celsius for public forecast. Weather courtesy of forecast.io.

Closest aviation weather report (METAR) to Grand Valley (Black Field)

Closest report is Waterloo Airport, 24.3 nm (45.0 km) S. Retrieved 2020/09/20 10:00 UTC (4 minutes ago):

CYKF 201000Z AUTO 06003KT 9SM BKN075 06/02 A3049 RMK SLP331

Closest aviation forecast (TAF) to Grand Valley (Black Field)

Closest forecast is Waterloo Airport, 24.3 nm (45.0 km) S. Retrieved 2020/09/20 08:45 UTC (1 hour ago):

TAF CYKF 200742Z 2008/2020 VRB03KT P6SM BKN080 FM201200 VRB03KT P6SM SCT100 BECMG 2014/2016 11008KT RMK FCST BASED ON AUTO OBS NXT FCST BY 201400Z